This is the latest recevied weather packets stored in our database for station/object N8AMF. If no packets are shown the sender has not sent any weather packets the latest 1 day(s).
| Time | Temp. | Humidity | Pressure | Rain* | Wind** | Luminosity | Snow |
|---|---|---|---|---|---|---|---|
| 1778011213 | 13.89° C | 95% | 1006.9 hPa | 2.29 mm | 0.89 m/s, 228° | 87 W/m² | - |
| 1778010909 | 14.44° C | 95% | 1006.9 hPa | 2.29 mm | 0.45 m/s, 205° | 118 W/m² | - |
| 1778010607 | 14.44° C | 95% | 1006.9 hPa | 3.56 mm | 0.45 m/s, 251° | 112 W/m² | - |
| 1778010304 | 13.89° C | 94% | 1006.9 hPa | 4.32 mm | 0 m/s | 107 W/m² | - |
| 1778010004 | 14.44° C | 94% | 1007 hPa | 6.6 mm | 0 m/s | 65 W/m² | - |
| 1778009702 | 14.44° C | 94% | 1007 hPa | 7.87 mm | 0.45 m/s, 207° | 88 W/m² | - |
| 1778009399 | 14.44° C | 93% | 1006.8 hPa | 7.87 mm | 0.45 m/s, 76° | 76 W/m² | - |
| 1778009097 | 14.44° C | 93% | 1007 hPa | 9.65 mm | 0 m/s | 48 W/m² | - |
| 1778008794 | 14.44° C | 93% | 1007.1 hPa | 8.38 mm | 0 m/s | 53 W/m² | - |
| 1778008493 | 14.44° C | 92% | 1007 hPa | 6.6 mm | 0.45 m/s, 205° | 50 W/m² | - |
| 1778008189 | 14.44° C | 91% | 1006.8 hPa | 4.83 mm | 0.45 m/s, 163° | 60 W/m² | - |
| 1778007884 | 14.44° C | 91% | 1007 hPa | 2.29 mm | 0.45 m/s, 226° | 45 W/m² | - |
| 1778007580 | 15° C | 90% | 1006.9 hPa | 1.27 mm | 0.89 m/s, 201° | 73 W/m² | - |
| 1778007278 | 15° C | 89% | 1007 hPa | 2.29 mm | 0 m/s | 68 W/m² | - |
| 1778006974 | 15° C | 88% | 1006.9 hPa | 3.05 mm | 0.89 m/s, 224° | 96 W/m² | - |
| 1778006671 | 15° C | 86% | 1007 hPa | 3.05 mm | 0.89 m/s, 215° | 138 W/m² | - |
| 1778006367 | 15° C | 84% | 1007.2 hPa | 2.29 mm | 0.45 m/s, 250° | 67 W/m² | - |
| 1778006064 | 15.56° C | 80% | 1007.1 hPa | 0.51 mm | 2.24 m/s, 214° | 65 W/m² | - |
| 1778005761 | 16.11° C | 79% | 1006.9 hPa | 0 mm | 0.45 m/s, 214° | 64 W/m² | - |
| 1778005458 | 16.11° C | 78% | 1007 hPa | 0 mm | 0.89 m/s, 221° | 82 W/m² | - |
| 1778005154 | 16.67° C | 77% | 1006.7 hPa | 0 mm | 2.68 m/s, 219° | 110 W/m² | - |
| 1778004852 | 16.67° C | 76% | 1006.8 hPa | 0 mm | 1.79 m/s, 219° | 209 W/m² | - |
| 1778004548 | 16.67° C | 75% | 1006.8 hPa | 0 mm | 1.34 m/s, 223° | 190 W/m² | - |
| 1778004245 | 16.67° C | 75% | 1006.9 hPa | 0 mm | 1.34 m/s, 194° | 148 W/m² | - |
| 1778003941 | 16.67° C | 74% | 1006.7 hPa | 0 mm | 1.34 m/s, 41° | 75 W/m² | - |
* Rain latest hour (hover to see other rain measurements)
** Current wind speed in m/s (hover to see current wind gust speed)